Time;durP1;ratioP1;P1;durP2;ratioP2;P2;SDS_P1;SDS_P2;PMS_P1;PMS_P2;Temp;Humidity;BMP_temperature;BMP_pressure;BME280_temperature;BME280_humidity;BME280_pressure;Samples;Min_cycle;Max_cycle;Signal;HPM_P1;HPM_P2
2022/07/27 00:02:23;;;;;;;3.00;2.30;;;19.20;86.90;;;;;;5084821;28;20447;-79
2022/07/27 00:04:50;;;;;;;2.03;1.93;;;19.10;87.10;;;;;;5079556;28;20495;-80
2022/07/27 00:07:17;;;;;;;3.10;2.80;;;19.10;87.50;;;;;;5090817;28;20476;-80
2022/07/27 00:09:43;;;;;;;2.93;2.73;;;19.10;88.00;;;;;;5099220;28;20450;-79
2022/07/27 00:12:10;;;;;;;2.60;2.40;;;19.10;88.40;;;;;;5087868;28;20968;-80
2022/07/27 00:14:37;;;;;;;2.40;2.20;;;19.10;88.80;;;;;;5082866;28;20456;-80
2022/07/27 00:17:05;;;;;;;2.40;2.20;;;19.10;89.30;;;;;;5098326;28;20470;-79
2022/07/27 00:19:32;;;;;;;2.40;2.30;;;19.00;89.60;;;;;;5095282;28;20786;-80
2022/07/27 00:21:58;;;;;;;2.73;2.50;;;19.00;90.00;;;;;;5079683;28;20454;-80
2022/07/27 00:24:26;;;;;;;2.70;2.47;;;18.90;90.20;;;;;;5080114;28;20461;-80
2022/07/27 00:26:52;;;;;;;2.30;2.20;;;18.90;90.40;;;;;;5098980;28;20485;-80
2022/07/27 00:29:19;;;;;;;2.73;2.27;;;18.90;90.50;;;;;;5099067;28;20458;-80
2022/07/27 00:31:46;;;;;;;2.83;2.73;;;18.90;90.70;;;;;;5058522;28;20506;-78
2022/07/27 00:34:14;;;;;;;2.80;2.70;;;18.90;90.80;;;;;;5065075;28;20453;-79
2022/07/27 00:36:40;;;;;;;4.20;3.17;;;18.90;90.90;;;;;;5097646;28;20486;-80
2022/07/27 00:39:07;;;;;;;2.33;2.23;;;18.90;91.10;;;;;;5096214;28;20467;-80
2022/07/27 00:41:34;;;;;;;4.70;2.50;;;18.90;91.30;;;;;;5078364;28;20447;-79
2022/07/27 00:44:03;;;;;;;3.27;2.97;;;18.90;91.40;;;;;;5078066;28;20457;-80
2022/07/27 00:46:31;;;;;;;3.63;2.50;;;18.90;91.50;;;;;;5097437;28;20538;-78
2022/07/27 00:48:57;;;;;;;2.30;2.20;;;19.00;91.60;;;;;;5098324;28;20461;-80
2022/07/27 00:51:26;;;;;;;2.70;2.50;;;19.00;91.70;;;;;;5078602;28;20543;-80
2022/07/27 00:53:54;;;;;;;4.60;3.27;;;18.90;91.80;;;;;;5080279;28;20452;-78
2022/07/27 00:56:22;;;;;;;4.60;3.20;;;18.90;91.90;;;;;;5097926;28;20469;-80
2022/07/27 00:58:53;;;;;;;3.17;2.97;;;18.90;92.00;;;;;;5096873;28;20443;-79
2022/07/27 01:01:20;;;;;;;4.00;3.13;;;18.90;92.20;;;;;;5078353;28;20451;-80
2022/07/27 01:03:47;;;;;;;5.40;2.90;;;18.90;92.30;;;;;;5078325;28;20458;-79
2022/07/27 01:06:14;;;;;;;4.20;2.87;;;18.90;92.40;;;;;;5097419;28;20490;-80
2022/07/27 01:08:42;;;;;;;4.80;2.90;;;18.90;92.40;;;;;;5098474;28;20451;-79
2022/07/27 01:11:10;;;;;;;3.23;3.03;;;18.90;92.60;;;;;;5078008;28;20455;-78
2022/07/27 01:13:37;;;;;;;3.37;3.07;;;18.90;92.50;;;;;;5076412;28;20855;-78
2022/07/27 01:16:06;;;;;;;3.93;3.13;;;18.90;92.70;;;;;;5078406;28;20472;-80
2022/07/27 01:18:35;;;;;;;3.97;3.60;;;18.90;92.70;;;;;;5078099;28;20451;-80
2022/07/27 01:21:04;;;;;;;3.50;3.20;;;18.90;92.70;;;;;;5094478;28;20962;-80
2022/07/27 01:23:32;;;;;;;3.63;3.43;;;19.00;92.80;;;;;;5096834;28;20469;-79
2022/07/27 01:25:59;;;;;;;3.30;3.10;;;19.00;92.70;;;;;;5077287;28;20488;-80
2022/07/27 01:28:26;;;;;;;4.47;3.97;;;18.80;92.80;;;;;;5077489;28;20455;-80
2022/07/27 01:30:53;;;;;;;3.40;3.13;;;18.70;93.10;;;;;;5077351;28;20453;-80
2022/07/27 01:33:24;;;;;;;3.73;3.53;;;18.60;93.70;;;;;;5077402;28;20850;-80
2022/07/27 01:35:53;;;;;;;3.03;2.83;;;18.50;93.90;;;;;;5095110;28;20455;-80
2022/07/27 01:38:20;;;;;;;3.43;3.20;;;18.40;94.40;;;;;;5097834;28;20447;-78
2022/07/27 01:40:48;;;;;;;4.40;4.00;;;18.40;94.60;;;;;;5079543;28;20457;-80
2022/07/27 01:43:15;;;;;;;3.40;3.10;;;18.40;94.90;;;;;;5076949;28;20447;-80
2022/07/27 01:45:42;;;;;;;6.10;3.70;;;18.30;95.20;;;;;;5096644;28;20486;-78
2022/07/27 01:48:09;;;;;;;4.17;3.80;;;18.20;95.40;;;;;;5096784;28;20952;-80
2022/07/27 01:50:36;;;;;;;4.50;3.97;;;18.20;95.70;;;;;;5077258;28;20464;-80
2022/07/27 01:53:03;;;;;;;3.40;3.20;;;18.10;95.90;;;;;;5076918;28;20446;-80
2022/07/27 01:55:30;;;;;;;4.60;4.30;;;18.20;96.10;;;;;;5094655;28;20458;-77
2022/07/27 01:57:58;;;;;;;4.70;3.93;;;18.10;96.10;;;;;;5096679;28;20473;-80
2022/07/27 02:00:25;;;;;;;3.90;3.70;;;18.20;96.30;;;;;;5079971;28;20465;-80
2022/07/27 02:02:51;;;;;;;3.57;3.13;;;18.10;96.50;;;;;;5077656;28;20448;-80
2022/07/27 02:05:18;;;;;;;4.13;3.87;;;18.10;96.50;;;;;;5092119;28;20873;-79
2022/07/27 02:07:45;;;;;;;3.97;3.67;;;18.10;96.70;;;;;;5100223;28;20469;-80
2022/07/27 02:10:12;;;;;;;4.13;3.80;;;18.10;96.90;;;;;;5087133;28;20474;-80
2022/07/27 02:12:38;;;;;;;4.03;3.80;;;18.10;97.00;;;;;;5080531;28;20457;-78
2022/07/27 02:15:10;;;;;;;3.97;3.70;;;18.10;97.10;;;;;;5081582;28;20455;-80
2022/07/27 02:17:38;;;;;;;3.93;3.57;;;18.10;97.20;;;;;;5080353;28;20497;-80
2022/07/27 02:20:07;;;;;;;4.53;4.33;;;18.30;97.10;;;;;;5094400;28;20541;-79
2022/07/27 02:22:34;;;;;;;4.00;3.70;;;18.20;97.00;;;;;;5100060;28;20450;-80
2022/07/27 02:25:01;;;;;;;4.03;3.83;;;18.10;97.40;;;;;;5085876;28;20824;-78
2022/07/27 02:27:28;;;;;;;4.20;4.00;;;18.10;97.60;;;;;;5080221;28;20475;-80
2022/07/27 02:29:55;;;;;;;5.53;5.13;;;18.10;97.70;;;;;;5091999;28;20442;-80
2022/07/27 02:32:23;;;;;;;5.70;5.10;;;18.10;97.80;;;;;;5101258;28;20457;-80
2022/07/27 02:34:49;;;;;;;4.27;3.87;;;18.10;97.80;;;;;;5085574;28;20454;-80
2022/07/27 02:37:16;;;;;;;4.70;4.30;;;18.00;97.90;;;;;;5080028;28;20459;-80
2022/07/27 02:39:43;;;;;;;3.53;3.33;;;18.10;97.90;;;;;;5093754;28;20453;-80
2022/07/27 02:42:10;;;;;;;3.90;3.43;;;18.20;97.90;;;;;;5100836;28;20446;-80
2022/07/27 02:44:37;;;;;;;4.30;4.00;;;18.10;97.90;;;;;;5088103;28;20453;-80
2022/07/27 02:47:03;;;;;;;4.47;3.90;;;18.10;98.10;;;;;;5079855;28;20498;-80
2022/07/27 02:49:32;;;;;;;4.10;3.90;;;18.00;98.20;;;;;;5090259;28;20459;-80
2022/07/27 02:51:59;;;;;;;4.20;4.00;;;18.00;98.40;;;;;;5100769;28;20450;-80
2022/07/27 02:54:26;;;;;;;3.97;3.63;;;18.00;98.60;;;;;;5090638;28;20446;-79
2022/07/27 02:56:54;;;;;;;4.17;3.90;;;17.80;98.70;;;;;;5080243;28;20460;-80
2022/07/27 02:59:22;;;;;;;4.47;4.17;;;17.80;99.10;;;;;;5087934;28;20442;-81
2022/07/27 03:01:49;;;;;;;4.60;4.30;;;17.70;99.40;;;;;;5100158;28;20607;-80
2022/07/27 03:04:17;;;;;;;4.70;4.30;;;17.80;99.40;;;;;;5098664;28;20438;-80
2022/07/27 03:06:45;;;;;;;4.23;3.80;;;17.80;99.60;;;;;;5100203;28;20486;-80
2022/07/27 03:09:11;;;;;;;4.43;4.03;;;17.80;99.60;;;;;;5092058;28;20462;-80
2022/07/27 03:11:38;;;;;;;4.27;3.97;;;18.00;99.50;;;;;;5080363;28;20443;-80
2022/07/27 03:14:05;;;;;;;4.80;4.30;;;18.00;99.20;;;;;;5085813;28;20445;-80
2022/07/27 03:16:32;;;;;;;6.10;5.70;;;18.10;99.10;;;;;;5100013;28;20465;-78
2022/07/27 03:18:59;;;;;;;3.73;3.40;;;18.20;99.00;;;;;;5094613;28;20455;-80
2022/07/27 03:21:26;;;;;;;3.70;3.50;;;18.10;99.00;;;;;;5080173;28;20450;-80
2022/07/27 03:23:54;;;;;;;4.50;4.07;;;17.80;99.50;;;;;;5083499;28;20450;-79
2022/07/27 03:26:20;;;;;;;6.13;4.00;;;17.80;99.90;;;;;;5100375;28;20496;-79
2022/07/27 03:28:47;;;;;;;5.07;4.67;;;17.60;99.90;;;;;;5091155;28;20457;-80
2022/07/27 03:31:14;;;;;;;5.67;3.77;;;17.70;99.90;;;;;;5079527;28;20458;-80
2022/07/27 03:33:40;;;;;;;5.13;4.73;;;17.80;99.90;;;;;;5086536;28;20461;-79
2022/07/27 03:36:07;;;;;;;4.40;4.10;;;17.60;99.90;;;;;;5101487;28;20469;-80
2022/07/27 03:38:34;;;;;;;4.93;4.53;;;17.50;99.90;;;;;;5101109;28;20452;-80
2022/07/27 03:41:02;;;;;;;5.40;4.93;;;17.30;99.90;;;;;;5083570;28;20450;-79
2022/07/27 03:43:29;;;;;;;4.50;4.20;;;17.30;99.90;;;;;;5083154;28;20461;-77
2022/07/27 03:45:56;;;;;;;3.77;3.47;;;17.20;99.90;;;;;;5080906;28;20497;-77
2022/07/27 03:48:22;;;;;;;4.60;4.20;;;17.20;99.90;;;;;;5080713;28;20983;-76
2022/07/27 03:50:49;;;;;;;4.70;4.30;;;17.10;99.90;;;;;;5081818;28;20451;-77
2022/07/27 03:53:16;;;;;;;5.00;4.60;;;17.00;99.90;;;;;;5081876;28;20467;-77
2022/07/27 03:55:43;;;;;;;5.10;4.80;;;17.00;99.90;;;;;;5101331;28;20484;-76
2022/07/27 03:58:11;;;;;;;5.77;4.77;;;16.90;99.90;;;;;;5100687;28;20955;-77
2022/07/27 04:00:38;;;;;;;4.60;4.30;;;16.80;99.90;;;;;;5061728;28;20454;-77
2022/07/27 04:03:05;;;;;;;5.13;4.73;;;16.80;99.90;;;;;;5061435;28;20466;-77
2022/07/27 04:05:32;;;;;;;4.67;4.30;;;16.80;99.90;;;;;;5099171;28;20453;-77
2022/07/27 04:07:58;;;;;;;5.70;4.80;;;16.80;99.90;;;;;;5101532;28;20469;-77
2022/07/27 04:10:26;;;;;;;4.67;4.27;;;16.80;99.90;;;;;;5084408;28;20465;-77
2022/07/27 04:12:53;;;;;;;4.70;4.33;;;16.80;99.90;;;;;;5081812;28;20461;-77
2022/07/27 04:15:21;;;;;;;4.90;4.30;;;16.80;99.90;;;;;;5097491;28;20454;-77
2022/07/27 04:17:48;;;;;;;4.90;4.40;;;16.80;99.90;;;;;;5101355;28;20488;-76
2022/07/27 04:20:14;;;;;;;6.40;5.47;;;16.90;99.90;;;;;;5086996;28;20458;-77
2022/07/27 04:22:41;;;;;;;4.73;4.43;;;17.00;99.90;;;;;;5081797;28;20455;-77
2022/07/27 04:25:09;;;;;;;5.23;4.77;;;17.10;99.90;;;;;;5081426;28;20818;-77
2022/07/27 04:27:36;;;;;;;5.30;5.00;;;17.10;99.90;;;;;;5079995;28;20490;-77
2022/07/27 04:30:03;;;;;;;6.33;4.70;;;17.10;99.90;;;;;;5094930;28;20540;-77
2022/07/27 04:32:31;;;;;;;4.80;4.50;;;17.10;99.90;;;;;;5101364;28;20446;-77
2022/07/27 04:34:58;;;;;;;5.57;5.20;;;17.10;99.90;;;;;;5087365;28;20451;-76
2022/07/27 04:37:25;;;;;;;5.33;4.83;;;17.20;99.90;;;;;;5080622;28;20467;-77
2022/07/27 04:39:56;;;;;;;5.77;5.33;;;17.20;99.90;;;;;;5093578;28;20454;-77
2022/07/27 04:42:22;;;;;;;6.07;5.57;;;17.20;99.90;;;;;;5101432;28;20459;-76
2022/07/27 04:44:49;;;;;;;5.07;4.77;;;17.20;99.90;;;;;;5100091;28;20808;-77
2022/07/27 04:47:16;;;;;;;5.63;5.13;;;17.20;99.90;;;;;;5100905;28;20894;-77
2022/07/27 04:49:44;;;;;;;5.80;5.40;;;17.20;99.90;;;;;;5088463;28;20458;-77
2022/07/27 04:52:10;;;;;;;4.97;4.67;;;17.30;99.90;;;;;;5081350;28;20825;-77
2022/07/27 04:54:37;;;;;;;7.13;5.00;;;17.30;99.90;;;;;;5081040;28;20454;-77
2022/07/27 04:57:04;;;;;;;5.73;5.33;;;17.40;99.90;;;;;;5080358;28;20470;-77
2022/07/27 04:59:31;;;;;;;5.40;5.00;;;17.40;99.90;;;;;;5081383;28;20453;-76
2022/07/27 05:01:57;;;;;;;5.87;5.37;;;17.50;99.90;;;;;;5088036;28;20537;-77
2022/07/27 05:04:24;;;;;;;5.90;5.50;;;17.60;99.90;;;;;;5100396;28;20446;-77
2022/07/27 05:06:52;;;;;;;5.40;4.90;;;17.70;99.90;;;;;;5093894;28;20474;-76
2022/07/27 05:09:19;;;;;;;5.97;5.50;;;17.60;99.90;;;;;;5091489;28;20450;-78
2022/07/27 05:11:46;;;;;;;5.73;5.20;;;17.50;99.90;;;;;;5083172;28;20816;-76
2022/07/27 05:14:12;;;;;;;5.47;5.07;;;17.50;99.90;;;;;;5080509;28;20455;-77
2022/07/27 05:16:39;;;;;;;7.00;5.70;;;17.60;99.90;;;;;;5095338;28;20472;-76
2022/07/27 05:19:06;;;;;;;5.90;5.50;;;17.70;99.90;;;;;;5100932;28;20446;-77
2022/07/27 05:21:33;;;;;;;6.50;6.00;;;17.60;99.90;;;;;;5086127;28;20447;-77
2022/07/27 05:24:01;;;;;;;6.33;5.60;;;17.60;99.90;;;;;;5081083;28;20447;-77
2022/07/27 05:26:27;;;;;;;6.40;5.90;;;17.70;99.90;;;;;;5100356;28;20489;-76
2022/07/27 05:28:54;;;;;;;8.27;6.40;;;17.80;99.90;;;;;;5090338;28;20450;-79
2022/07/27 05:31:21;;;;;;;5.57;5.07;;;17.70;99.90;;;;;;5114779;28;20445;-79
2022/07/27 05:33:47;;;;;;;5.87;5.30;;;17.80;99.90;;;;;;5100305;28;20446;-76
2022/07/27 05:36:14;;;;;;;5.80;5.30;;;17.90;99.90;;;;;;5094283;28;20454;-78
2022/07/27 05:38:41;;;;;;;5.70;5.30;;;17.90;99.90;;;;;;5094886;28;20446;-78
2022/07/27 05:41:09;;;;;;;4.83;4.47;;;17.90;99.90;;;;;;5094926;28;20446;-82
2022/07/27 05:43:36;;;;;;;5.50;5.20;;;17.90;99.90;;;;;;5114617;28;20449;-77
2022/07/27 05:46:03;;;;;;;5.60;5.20;;;18.00;99.90;;;;;;5113386;28;20474;-78
2022/07/27 05:48:31;;;;;;;6.23;5.70;;;18.00;99.90;;;;;;5085116;28;20443;-79
2022/07/27 05:50:58;;;;;;;4.93;4.63;;;18.00;99.90;;;;;;5082919;28;20777;-79
2022/07/27 05:53:25;;;;;;;12.30;8.07;;;18.20;99.90;;;;;;5100639;28;20450;-78
2022/07/27 05:55:52;;;;;;;5.43;5.03;;;18.20;99.90;;;;;;5100091;28;20523;-80
2022/07/27 05:58:20;;;;;;;5.93;5.53;;;18.30;99.90;;;;;;5081382;28;20470;-78
2022/07/27 06:00:47;;;;;;;6.20;5.73;;;18.30;99.90;;;;;;5082961;28;20452;-78
2022/07/27 06:03:14;;;;;;;6.27;5.67;;;18.40;99.90;;;;;;5082812;28;20726;-78
2022/07/27 06:05:40;;;;;;;6.37;5.80;;;18.40;99.90;;;;;;5082438;28;20456;-78
2022/07/27 06:08:07;;;;;;;6.90;6.50;;;18.40;99.90;;;;;;5061679;28;20491;-79
2022/07/27 06:10:36;;;;;;;8.17;5.70;;;18.40;99.90;;;;;;5064907;28;20486;-83
2022/07/27 06:13:04;;;;;;;6.50;6.10;;;18.40;99.90;;;;;;5062237;28;20440;-79
2022/07/27 06:15:33;;;;;;;6.50;6.00;;;18.40;99.90;;;;;;5078851;28;20452;-80
2022/07/27 06:18:02;;;;;;;5.70;5.30;;;18.40;99.90;;;;;;5074402;28;20484;-81
2022/07/27 06:20:29;;;;;;;6.00;5.50;;;18.60;99.90;;;;;;5074912;28;20481;-82
2022/07/27 06:22:58;;;;;;;6.67;6.17;;;18.70;99.90;;;;;;5091553;28;20450;-82
2022/07/27 06:25:26;;;;;;;5.87;5.40;;;18.70;99.90;;;;;;5095231;28;20454;-82
2022/07/27 06:27:53;;;;;;;6.40;6.00;;;18.70;99.90;;;;;;5078899;28;20479;-82
2022/07/27 06:30:21;;;;;;;5.97;5.57;;;18.80;99.90;;;;;;5074835;28;20813;-81
2022/07/27 06:32:49;;;;;;;6.07;5.60;;;18.80;99.90;;;;;;5062491;28;20483;-81
2022/07/27 06:35:16;;;;;;;6.40;5.77;;;18.90;99.90;;;;;;5065199;28;20458;-81
2022/07/27 06:37:43;;;;;;;7.50;6.73;;;19.00;99.90;;;;;;5069158;28;20468;-81
2022/07/27 06:40:12;;;;;;;5.70;5.30;;;19.10;99.90;;;;;;5065256;28;20445;-81
2022/07/27 06:42:39;;;;;;;17.93;7.53;;;19.40;99.90;;;;;;5066200;28;20457;-81
2022/07/27 06:45:08;;;;;;;6.57;6.17;;;19.30;99.90;;;;;;5065800;28;20452;-82
2022/07/27 06:47:34;;;;;;;7.33;6.73;;;19.30;99.90;;;;;;5082375;28;20490;-82
2022/07/27 06:50:03;;;;;;;7.53;6.33;;;19.30;99.90;;;;;;5095082;28;20457;-82
2022/07/27 06:52:30;;;;;;;10.33;6.00;;;19.40;99.90;;;;;;5094435;28;20455;-82
2022/07/27 06:54:57;;;;;;;7.63;6.90;;;19.50;99.90;;;;;;5095085;28;20455;-81
2022/07/27 06:57:23;;;;;;;6.60;6.00;;;19.60;99.90;;;;;;5094685;28;20468;-82
2022/07/27 06:59:50;;;;;;;5.50;5.00;;;19.80;99.90;;;;;;5091624;28;20454;-79
2022/07/27 07:02:17;;;;;;;6.40;5.90;;;19.80;99.90;;;;;;5075733;28;20490;-79
2022/07/27 07:04:44;;;;;;;8.77;6.47;;;19.70;99.90;;;;;;5075211;28;20452;-82
2022/07/27 07:07:12;;;;;;;5.43;5.03;;;19.60;99.90;;;;;;5074302;28;20651;-81
2022/07/27 07:09:59;;;;;;;6.60;6.00;;;19.70;99.90;;;;;;5080500;28;20884;-86
2022/07/27 07:12:27;;;;;;;7.00;6.50;;;19.80;99.90;;;;;;5092074;28;20452;-81
2022/07/27 07:14:53;;;;;;;8.50;7.50;;;19.90;99.90;;;;;;5084868;28;20522;-81
2022/07/27 07:17:20;;;;;;;7.17;6.50;;;19.80;99.70;;;;;;5082003;28;20467;-81
2022/07/27 07:19:47;;;;;;;6.80;6.27;;;19.80;99.90;;;;;;5097191;28;20452;-81
2022/07/27 07:22:15;;;;;;;6.00;5.60;;;20.00;99.90;;;;;;5098719;28;20473;-81
2022/07/27 07:24:42;;;;;;;5.70;5.30;;;20.20;99.90;;;;;;5098646;28;20487;-82
2022/07/27 07:27:08;;;;;;;6.53;5.90;;;20.30;99.30;;;;;;5097866;28;20483;-81
2022/07/27 07:29:35;;;;;;;6.60;6.10;;;20.40;99.10;;;;;;5081773;28;20454;-82
2022/07/27 07:32:02;;;;;;;6.40;5.90;;;20.40;98.80;;;;;;5078997;28;20464;-81
2022/07/27 07:34:33;;;;;;;5.47;5.07;;;20.40;98.40;;;;;;5082470;28;20456;-83
2022/07/27 07:37:03;;;;;;;6.77;6.30;;;20.50;98.60;;;;;;5099362;28;20890;-83
2022/07/27 07:39:31;;;;;;;6.67;6.00;;;20.80;98.70;;;;;;5064331;28;20459;-80
2022/07/27 07:42:00;;;;;;;6.47;5.87;;;20.90;97.90;;;;;;5075734;28;20443;-81
2022/07/27 07:44:59;;;;;;;6.50;6.10;;;21.00;97.40;;;;;;5088233;28;20444;-83
2022/07/27 07:47:38;;;;;;;6.70;6.10;;;21.00;97.30;;;;;;5082547;28;20921;-85
2022/07/27 07:50:14;;;;;;;5.60;5.20;;;21.20;96.90;;;;;;5092284;28;20453;-83
2022/07/27 07:52:41;;;;;;;5.83;5.33;;;21.40;96.90;;;;;;5098476;28;20436;-83
2022/07/27 07:55:12;;;;;;;5.10;4.70;;;21.80;96.50;;;;;;5098095;28;20452;-83
2022/07/27 07:57:39;;;;;;;5.10;4.80;;;22.10;96.00;;;;;;5097962;28;20474;-83
2022/07/27 08:00:08;;;;;;;6.17;5.70;;;22.40;95.20;;;;;;5098461;28;20454;-83
2022/07/27 08:02:43;;;;;;;5.23;4.90;;;22.40;94.90;;;;;;5097988;28;20450;-83
2022/07/27 08:05:10;;;;;;;6.70;6.20;;;22.50;94.40;;;;;;5097987;28;20438;-83
2022/07/27 08:07:37;;;;;;;6.03;5.63;;;22.10;94.60;;;;;;5097684;28;20497;-84
2022/07/27 08:10:06;;;;;;;6.13;5.53;;;21.80;95.00;;;;;;5097469;28;20457;-83
2022/07/27 08:12:37;;;;;;;5.87;5.27;;;21.70;95.30;;;;;;5079786;28;20449;-84
2022/07/27 08:15:06;;;;;;;6.37;5.77;;;21.60;95.60;;;;;;5098103;28;20506;-83
2022/07/27 08:17:34;;;;;;;5.90;5.40;;;21.80;96.20;;;;;;5097745;28;20986;-83
2022/07/27 08:20:02;;;;;;;6.20;5.70;;;21.70;95.80;;;;;;5099096;28;20910;-80
2022/07/27 08:26:09;;;;;;;6.23;5.80;;;21.70;95.50;;;;;;5105092;28;20453;-80
2022/07/27 08:28:37;;;;;;;5.90;5.40;;;21.90;94.90;;;;;;5105194;28;20464;-81
2022/07/27 08:31:04;;;;;;;7.23;6.67;;;22.10;95.20;;;;;;5107395;28;20280;-83
2022/07/27 08:33:31;;;;;;;6.10;5.60;;;22.50;94.70;;;;;;5108980;28;20442;-80
2022/07/27 08:35:58;;;;;;;6.70;6.17;;;22.40;94.50;;;;;;5108471;28;20447;-81
2022/07/27 08:38:26;;;;;;;7.50;6.70;;;22.30;94.30;;;;;;5110549;28;20488;-81
2022/07/27 08:40:55;;;;;;;5.77;5.13;;;22.70;94.40;;;;;;5110715;28;20522;-81
2022/07/27 08:43:24;;;;;;;6.37;5.87;;;22.80;94.00;;;;;;5111697;28;20450;-80
2022/07/27 08:45:55;;;;;;;5.90;5.50;;;22.90;93.20;;;;;;5111557;28;20450;-83
2022/07/27 08:48:22;;;;;;;6.23;5.63;;;22.90;93.50;;;;;;5111331;28;20483;-80
2022/07/27 08:50:49;;;;;;;5.47;5.07;;;23.20;93.30;;;;;;5111544;28;20443;-81
2022/07/27 08:53:17;;;;;;;7.70;5.90;;;23.30;93.20;;;;;;5113307;28;20508;-82
2022/07/27 08:55:46;;;;;;;5.87;5.47;;;23.30;92.80;;;;;;5113653;28;20451;-88
2022/07/27 08:58:13;;;;;;;6.03;5.60;;;23.40;92.50;;;;;;5113303;28;20471;-81
2022/07/27 09:00:42;;;;;;;7.30;6.77;;;23.50;92.40;;;;;;5112895;28;20498;-82
2022/07/27 09:03:12;;;;;;;6.53;5.97;;;23.30;92.00;;;;;;5112171;28;20473;-84
2022/07/27 09:05:42;;;;;;;6.10;5.70;;;23.10;92.20;;;;;;5112425;28;20517;-83
2022/07/27 09:08:10;;;;;;;10.03;6.90;;;23.10;92.30;;;;;;5111742;28;20475;-85
2022/07/27 09:10:37;;;;;;;9.20;6.03;;;23.30;92.60;;;;;;5112117;28;20951;-85
2022/07/27 09:13:41;;;;;;;6.00;5.50;;;23.60;92.30;;;;;;5110841;28;20477;-82
2022/07/27 09:16:09;;;;;;;6.50;6.00;;;23.90;92.00;;;;;;5102377;28;20464;-84
2022/07/27 09:18:38;;;;;;;7.73;7.03;;;23.60;91.50;;;;;;5099443;28;20440;-85
2022/07/27 09:21:10;;;;;;;5.87;5.47;;;23.30;91.70;;;;;;5105226;28;20452;-85
2022/07/27 09:23:38;;;;;;;6.30;5.90;;;23.20;92.10;;;;;;5109179;28;20465;-85
2022/07/27 09:26:12;;;;;;;6.67;6.27;;;23.00;91.70;;;;;;5108147;28;20477;-82
2022/07/27 09:28:40;;;;;;;6.00;5.50;;;22.90;91.90;;;;;;5107976;28;20481;-83
2022/07/27 09:31:07;;;;;;;6.30;5.90;;;22.90;91.90;;;;;;5107974;28;20512;-83
2022/07/27 09:33:43;;;;;;;5.87;5.20;;;22.90;92.30;;;;;;5106806;28;20451;-82
2022/07/27 09:36:10;;;;;;;6.60;6.10;;;23.00;92.40;;;;;;5101060;28;20524;-85
2022/07/27 09:38:37;;;;;;;6.73;6.20;;;23.10;92.20;;;;;;5096161;28;20438;-84
2022/07/27 09:41:06;;;;;;;6.67;6.13;;;23.20;91.80;;;;;;5095689;28;20920;-85
2022/07/27 09:43:45;;;;;;;8.25;6.15;;;23.20;91.30;;;;;;5095852;28;20447;-84
2022/07/27 09:46:12;;;;;;;5.57;5.07;;;23.20;91.60;;;;;;5095629;28;20236;-85
2022/07/27 09:48:39;;;;;;;5.57;5.07;;;23.40;91.10;;;;;;5095522;28;20578;-84
2022/07/27 09:51:09;;;;;;;5.70;5.30;;;23.50;90.90;;;;;;5103483;28;20967;-83
2022/07/27 09:53:36;;;;;;;5.43;5.03;;;23.60;91.10;;;;;;5109656;28;20457;-84
2022/07/27 09:56:06;;;;;;;6.33;5.93;;;23.70;90.90;;;;;;5108739;28;20470;-81
2022/07/27 09:58:45;;;;;;;6.10;5.53;;;23.70;90.60;;;;;;5103388;28;20476;-84
2022/07/27 10:01:14;;;;;;;5.90;5.43;;;23.70;90.60;;;;;;5096397;28;20932;-84
2022/07/27 10:03:42;;;;;;;6.80;5.33;;;24.00;90.90;;;;;;5096048;28;20449;-85
2022/07/27 10:06:11;;;;;;;7.27;6.73;;;24.10;90.50;;;;;;5095609;28;21052;-84
2022/07/27 10:08:40;;;;;;;5.07;4.77;;;24.30;90.00;;;;;;5095424;28;20493;-84
2022/07/27 10:11:07;;;;;;;5.90;5.50;;;24.10;90.00;;;;;;5095997;28;20451;-85
2022/07/27 10:13:34;;;;;;;5.87;5.57;;;23.90;90.40;;;;;;5095913;28;20456;-85
2022/07/27 10:16:03;;;;;;;5.27;4.97;;;24.10;91.20;;;;;;5095152;28;20468;-85
2022/07/27 10:18:41;;;;;;;5.93;5.53;;;23.90;90.20;;;;;;5095624;28;20485;-84
2022/07/27 10:21:13;;;;;;;5.60;5.10;;;23.90;89.30;;;;;;5095223;28;20788;-85
2022/07/27 10:23:42;;;;;;;6.00;5.50;;;24.00;89.50;;;;;;5094942;28;20694;-84
2022/07/27 10:26:16;;;;;;;5.27;4.87;;;23.80;89.10;;;;;;5095495;28;20471;-85
2022/07/27 10:28:50;;;;;;;6.30;5.80;;;23.80;89.80;;;;;;5095156;28;20473;-85
2022/07/27 10:31:21;;;;;;;5.80;5.40;;;23.90;89.80;;;;;;5076592;28;20970;-85
2022/07/27 10:33:53;;;;;;;4.80;4.43;;;24.00;89.10;;;;;;5095306;28;20456;-85
2022/07/27 10:36:46;;;;;;;7.17;5.00;;;24.40;89.80;;;;;;5094653;28;20563;-85
2022/07/27 10:39:33;;;;;;;6.03;5.63;;;24.30;86.70;;;;;;5095301;28;20460;-85
2022/07/27 10:42:24;;;;;;;5.67;5.20;;;24.40;87.50;;;;;;5095603;28;20437;-84
2022/07/27 10:44:56;;;;;;;6.47;5.90;;;24.80;87.20;;;;;;5094962;28;20431;-85
2022/07/27 10:47:37;;;;;;;6.43;5.93;;;25.00;86.50;;;;;;5094484;28;20481;-84
2022/07/27 10:50:29;;;;;;;6.33;5.30;;;25.50;84.60;;;;;;5095983;28;20440;-85
2022/07/27 10:53:02;;;;;;;5.87;5.37;;;25.90;84.80;;;;;;5095405;28;20439;-85
2022/07/27 10:55:44;;;;;;;4.83;4.50;;;26.00;82.30;;;;;;5096975;28;20455;-84
2022/07/27 10:58:45;;;;;;;5.30;4.90;;;25.90;80.70;;;;;;5095198;28;20934;-84
2022/07/27 11:01:13;;;;;;;4.53;4.23;;;26.00;80.50;;;;;;5077519;28;20551;-85
2022/07/27 11:03:46;;;;;;;4.87;4.57;;;25.70;77.90;;;;;;5095169;28;20446;-85
2022/07/27 11:06:20;;;;;;;5.50;4.97;;;25.40;77.30;;;;;;5094899;28;20470;-85
2022/07/27 11:08:49;;;;;;;5.53;5.03;;;25.60;78.30;;;;;;5094593;28;20482;-85
2022/07/27 11:14:43;;;;;;;5.17;4.87;;;26.10;77.80;;;;;;5095185;28;20446;-85
2022/07/27 11:17:11;;;;;;;5.17;4.67;;;26.70;75.90;;;;;;5094864;28;20825;-85
2022/07/27 11:19:38;;;;;;;4.83;4.60;;;27.20;76.00;;;;;;5094746;28;20523;-84
2022/07/27 11:22:05;;;;;;;4.33;4.13;;;27.60;75.20;;;;;;5094879;28;20472;-84
2022/07/27 11:24:35;;;;;;;4.00;3.77;;;28.00;72.40;;;;;;5095081;28;20454;-85
2022/07/27 11:27:03;;;;;;;4.70;4.30;;;28.00;70.60;;;;;;5094226;28;20561;-85
2022/07/27 11:29:33;;;;;;;4.83;4.53;;;27.50;68.60;;;;;;5094597;28;20479;-83
2022/07/27 11:32:01;;;;;;;3.97;3.67;;;26.80;69.50;;;;;;5094828;28;20434;-85
2022/07/27 11:34:29;;;;;;;3.60;3.03;;;26.40;68.60;;;;;;5094883;28;20449;-84
2022/07/27 11:37:00;;;;;;;3.50;3.30;;;26.20;66.70;;;;;;5093949;28;20507;-84
2022/07/27 11:39:28;;;;;;;3.80;3.50;;;26.30;65.40;;;;;;5093890;28;20438;-84
2022/07/27 11:41:58;;;;;;;5.93;3.40;;;26.40;67.40;;;;;;5094466;28;20451;-85
2022/07/27 11:44:25;;;;;;;4.67;4.10;;;26.60;67.80;;;;;;5094398;28;20447;-84
2022/07/27 11:46:53;;;;;;;5.40;3.87;;;26.70;68.10;;;;;;5094644;28;20475;-84
2022/07/27 11:49:25;;;;;;;5.07;4.60;;;26.50;68.50;;;;;;5094101;28;20491;-84
2022/07/27 11:51:53;;;;;;;4.70;4.40;;;26.80;70.10;;;;;;5094506;28;20448;-84
2022/07/27 11:54:23;;;;;;;4.20;3.90;;;26.90;67.40;;;;;;5095279;28;20491;-84
2022/07/27 11:56:51;;;;;;;4.77;4.47;;;26.70;67.80;;;;;;5096109;28;20475;-84
2022/07/27 11:59:21;;;;;;;4.00;3.70;;;27.00;68.30;;;;;;5099364;28;20548;-84
2022/07/27 12:01:51;;;;;;;3.50;3.20;;;27.60;68.50;;;;;;5098619;28;20545;-84
2022/07/27 12:04:24;;;;;;;3.10;2.90;;;28.00;62.40;;;;;;5099054;28;20806;-84
2022/07/27 12:07:01;;;;;;;6.13;4.10;;;28.20;61.60;;;;;;5098310;28;20470;-84
2022/07/27 12:09:29;;;;;;;2.70;2.50;;;29.30;61.90;;;;;;5098242;28;20480;-84
2022/07/27 12:11:59;;;;;;;2.97;2.77;;;30.30;55.50;;;;;;5098293;28;21047;-84
2022/07/27 12:14:33;;;;;;;4.03;3.73;;;31.30;53.10;;;;;;5098960;28;20448;-84
2022/07/27 12:17:28;;;;;;;3.00;2.80;;;32.00;53.80;;;;;;5097186;28;20469;-84
2022/07/27 12:20:00;;;;;;;3.00;2.80;;;32.70;51.90;;;;;;5098354;28;20459;-85
2022/07/27 12:22:31;;;;;;;3.60;3.40;;;31.80;50.00;;;;;;5098437;28;20435;-85
2022/07/27 12:24:59;;;;;;;3.60;3.40;;;30.60;51.90;;;;;;5097704;28;20424;-85
2022/07/27 12:27:27;;;;;;;4.13;3.73;;;30.10;53.60;;;;;;5097828;28;20480;-85
2022/07/27 12:30:00;;;;;;;3.60;3.40;;;29.60;53.60;;;;;;5096982;28;20488;-84
2022/07/27 12:32:29;;;;;;;3.20;3.00;;;29.20;55.40;;;;;;5097777;28;20797;-84
2022/07/27 12:34:56;;;;;;;3.60;3.40;;;28.80;54.60;;;;;;5097599;28;20823;-84
2022/07/27 12:37:29;;;;;;;2.53;2.43;;;28.40;56.10;;;;;;5097610;28;20501;-83
2022/07/27 12:39:55;;;;;;;3.10;2.90;;;28.30;56.50;;;;;;5098229;28;20434;-84
2022/07/27 12:42:32;;;;;;;3.20;3.00;;;28.00;56.90;;;;;;5097473;28;20457;-84
2022/07/27 12:45:12;;;;;;;4.50;3.10;;;28.10;56.50;;;;;;5097703;28;20433;-84
2022/07/27 12:47:41;;;;;;;3.30;3.10;;;28.60;56.30;;;;;;5097122;28;20478;-84
2022/07/27 12:50:10;;;;;;;3.13;3.00;;;28.60;55.40;;;;;;5099857;28;21031;-84
2022/07/27 12:52:40;;;;;;;3.10;2.90;;;28.20;54.60;;;;;;5097868;28;20453;-84
2022/07/27 12:55:08;;;;;;;2.90;2.70;;;28.60;55.20;;;;;;5097609;28;20446;-84
2022/07/27 12:57:36;;;;;;;3.40;3.20;;;28.90;53.80;;;;;;5096869;28;20999;-84
2022/07/27 13:00:08;;;;;;;3.00;2.80;;;29.50;52.40;;;;;;5097778;28;20534;-84
2022/07/27 13:02:35;;;;;;;2.83;2.67;;;30.10;52.60;;;;;;5097754;28;20514;-84